Time;durP1;ratioP1;P1;durP2;ratioP2;P2;SDS_P1;SDS_P2;PMS_P1;PMS_P2;Temp;Humidity;BMP_temperature;BMP_pressure;BME280_temperature;BME280_humidity;BME280_pressure;Samples;Min_cycle;Max_cycle;Signal;HPM_P1;HPM_P2
2022/10/03 00:01:26;;;;;;;15.43;2.00;;;;;;;10.02;100.00;102364.59;4893933;29;20064;-77
2022/10/03 00:04:27;;;;;;;23.45;2.50;;;;;;;10.02;100.00;102364.59;4895739;29;20057;-79
2022/10/03 00:07:33;;;;;;;13.02;3.13;;;;;;;10.02;100.00;102369.88;4860035;29;20060;-78
2022/10/03 00:10:05;;;;;;;16.15;2.78;;;;;;;10.02;100.00;102368.94;4879847;29;20057;-78
2022/10/03 00:12:41;;;;;;;16.42;2.33;;;;;;;10.02;100.00;102372.50;4869590;29;20164;-78
2022/10/03 00:15:35;;;;;;;13.60;2.33;;;;;;;10.02;100.00;102372.50;4866530;29;20036;-79
2022/10/03 00:18:19;;;;;;;11.13;2.25;;;;;;;10.02;100.00;102383.03;4894168;29;20053;-79
2022/10/03 00:21:18;;;;;;;27.40;3.10;;;;;;;10.04;100.00;102388.34;4894314;29;20045;-79
2022/10/03 00:23:49;;;;;;;22.27;3.13;;;;;;;10.04;100.00;102386.59;4876737;29;20048;-78
2022/10/03 00:26:40;;;;;;;9.88;2.35;;;;;;;10.08;100.00;102395.50;4877069;29;20052;-78
2022/10/03 00:29:44;;;;;;;13.20;2.13;;;;;;;10.09;100.00;102398.19;4841814;29;20052;-79
2022/10/03 00:32:13;;;;;;;14.02;2.45;;;;;;;10.11;100.00;102398.19;4863834;29;20049;-79
2022/10/03 00:35:01;;;;;;;14.68;2.60;;;;;;;10.17;100.00;102408.03;4894261;29;20055;-79
2022/10/03 00:37:37;;;;;;;16.50;2.97;;;;;;;10.18;100.00;102404.56;4870357;29;20049;-79
2022/10/03 00:40:28;;;;;;;15.52;2.50;;;;;;;10.20;100.00;102410.78;4877078;29;20053;-79
2022/10/03 00:43:26;;;;;;;11.27;2.08;;;;;;;10.21;100.00;102405.56;4872357;29;20049;-79
2022/10/03 00:46:04;;;;;;;14.27;2.08;;;;;;;10.24;100.00;102416.16;4865291;29;20048;-78
2022/10/03 00:48:59;;;;;;;10.88;2.22;;;;;;;10.27;100.00;102404.84;4891472;29;20063;-78
2022/10/03 00:51:55;;;;;;;14.80;2.92;;;;;;;10.29;100.00;102411.03;4879411;29;20184;-79
2022/10/03 00:54:43;;;;;;;11.77;2.10;;;;;;;10.32;100.00;102413.78;4869002;29;20085;-79
2022/10/03 00:57:51;;;;;;;13.23;2.88;;;;;;;10.36;100.00;102428.88;4872664;29;20494;-78
2022/10/03 01:00:29;;;;;;;12.07;1.98;;;;;;;10.40;100.00;102424.56;4875250;29;20064;-80
2022/10/03 01:03:00;;;;;;;9.73;2.25;;;;;;;10.43;100.00;102427.28;4885164;29;20044;-78
2022/10/03 01:05:34;;;;;;;13.45;2.53;;;;;;;10.45;100.00;102434.41;4890736;29;20053;-79
2022/10/03 01:08:21;;;;;;;9.32;1.77;;;;;;;10.47;100.00;102429.16;4900712;29;20056;-78
2022/10/03 01:10:58;;;;;;;10.35;1.95;;;;;;;10.48;100.00;102439.75;4912085;29;20535;-79
2022/10/03 01:13:49;;;;;;;11.32;2.55;;;;;;;10.47;100.00;102431.78;4909578;29;20304;-80
2022/10/03 01:17:00;;;;;;;12.57;2.20;;;;;;;10.46;100.00;102436.16;4869726;29;20055;-80
2022/10/03 01:19:31;;;;;;;9.60;2.10;;;;;;;10.44;100.00;102431.72;4909836;29;20051;-78
2022/10/03 01:22:37;;;;;;;8.02;2.00;;;;;;;10.43;100.00;102432.56;4913196;29;20046;-78
2022/10/03 01:25:24;;;;;;;10.95;2.05;;;;;;;10.40;100.00;102440.38;4895922;29;20048;-77
2022/10/03 01:31:24;;;;;;;11.98;2.00;;;;;;;10.32;100.00;102442.75;4893793;29;20510;-79
2022/10/03 01:34:07;;;;;;;15.60;2.65;;;;;;;10.28;100.00;102436.50;4882658;29;20058;-78
2022/10/03 01:36:51;;;;;;;15.15;2.47;;;;;;;10.27;100.00;102439.97;4892353;29;20052;-78
2022/10/03 01:39:33;;;;;;;14.63;2.75;;;;;;;10.28;100.00;102447.03;4889726;29;20036;-79
2022/10/03 01:42:38;;;;;;;10.43;2.88;;;;;;;10.30;100.00;102448.03;4894895;29;20052;-79
2022/10/03 01:45:21;;;;;;;9.70;2.22;;;;;;;10.33;100.00;102444.56;4874903;29;20059;-79
2022/10/03 01:47:57;;;;;;;8.75;2.10;;;;;;;10.36;100.00;102447.31;4884969;29;20056;-79
2022/10/03 01:50:46;;;;;;;18.52;2.83;;;;;;;10.41;100.00;102458.84;4909454;29;20608;-79
2022/10/03 01:53:45;;;;;;;13.68;2.22;;;;;;;10.44;100.00;102456.31;4878369;29;20047;-79
2022/10/03 01:56:20;;;;;;;15.73;2.10;;;;;;;10.50;100.00;102452.97;4890454;29;20406;-79
2022/10/03 01:58:59;;;;;;;16.42;1.92;;;;;;;10.52;100.00;102457.44;4914001;29;20059;-78
2022/10/03 02:01:49;;;;;;;9.02;2.30;;;;;;;10.56;100.00;102454.91;4908109;29;20258;-78
2022/10/03 02:04:31;;;;;;;12.73;2.72;;;;;;;10.57;100.00;102459.31;4875163;29;20059;-78
2022/10/03 02:07:27;;;;;;;12.13;2.40;;;;;;;10.57;100.00;102464.56;4894852;29;20063;-80
2022/10/03 02:10:12;;;;;;;9.70;2.10;;;;;;;10.55;100.00;102459.28;4895463;29;20051;-79
2022/10/03 02:12:54;;;;;;;10.07;2.00;;;;;;;10.54;100.00;102458.38;4884377;29;20273;-78
2022/10/03 02:15:44;;;;;;;19.73;2.97;;;;;;;10.57;100.00;102467.22;4891301;29;20077;-78
2022/10/03 02:18:33;;;;;;;10.15;1.73;;;;;;;10.60;100.00;102459.41;4894762;29;20044;-79
2022/10/03 02:21:16;;;;;;;10.85;2.28;;;;;;;10.62;100.00;102470.88;4855632;29;20521;-78
2022/10/03 02:24:02;;;;;;;12.95;2.83;;;;;;;10.65;100.00;102473.63;4892342;29;20067;-79
2022/10/03 02:26:36;;;;;;;7.90;2.25;;;;;;;10.70;100.00;102464.09;4892058;29;20563;-78
2022/10/03 02:29:16;;;;;;;11.40;2.20;;;;;;;10.74;100.00;102463.34;4906799;29;20540;-78
2022/10/03 02:32:15;;;;;;;12.90;2.08;;;;;;;10.79;100.00;102464.34;4902424;29;20318;-78
2022/10/03 02:35:21;;;;;;;13.10;2.13;;;;;;;10.85;100.00;102464.53;4911900;29;20237;-78
2022/10/03 02:38:21;;;;;;;14.85;2.33;;;;;;;10.87;100.00;102457.56;4894424;29;20056;-78
2022/10/03 02:40:49;;;;;;;9.73;2.33;;;;;;;10.90;100.00;102462.88;4894027;29;20052;-79
2022/10/03 02:43:33;;;;;;;15.90;3.20;;;;;;;10.92;100.00;102458.56;4886700;29;20371;-79
2022/10/03 02:46:20;;;;;;;18.45;1.92;;;;;;;10.97;100.00;102465.72;4893136;29;20047;-79
2022/10/03 02:49:18;;;;;;;18.27;2.28;;;;;;;10.97;100.00;102465.72;4894135;29;20056;-78
2022/10/03 02:52:22;;;;;;;15.82;1.83;;;;;;;10.98;100.00;102464.84;4854974;29;20071;-79
2022/10/03 02:55:32;;;;;;;14.30;2.08;;;;;;;10.92;100.00;102466.47;4884634;29;20063;-78
2022/10/03 02:58:34;;;;;;;12.75;2.38;;;;;;;10.88;100.00;102466.34;4884621;29;20068;-79
2022/10/03 03:01:18;;;;;;;12.38;2.65;;;;;;;10.84;100.00;102473.28;4860071;29;20041;-79
2022/10/03 03:04:06;;;;;;;16.90;2.30;;;;;;;10.81;100.00;102477.56;4860417;29;20048;-79
2022/10/03 03:06:51;;;;;;;11.65;1.83;;;;;;;10.74;100.00;102489.69;4889461;29;20060;-79
2022/10/03 03:09:54;;;;;;;14.23;1.90;;;;;;;10.65;100.00;102479.78;4861980;29;20063;-78
2022/10/03 03:12:38;;;;;;;15.07;2.08;;;;;;;10.60;100.00;102480.50;4871527;29;20049;-78
2022/10/03 03:15:47;;;;;;;9.52;2.60;;;;;;;10.52;100.00;102478.50;4881108;29;20047;-79
2022/10/03 03:18:40;;;;;;;12.73;1.80;;;;;;;10.48;100.00;102481.03;4890695;29;20045;-78
2022/10/03 03:21:23;;;;;;;15.18;2.40;;;;;;;10.42;100.00;102478.22;4874050;29;20045;-78
2022/10/03 03:24:17;;;;;;;13.55;2.10;;;;;;;10.37;100.00;102483.34;4865323;29;20048;-78
2022/10/03 03:26:57;;;;;;;16.63;2.42;;;;;;;10.34;100.00;102483.25;4882273;29;20053;-79
2022/10/03 03:30:07;;;;;;;8.65;2.78;;;;;;;10.32;100.00;102480.56;4866268;29;20538;-79
2022/10/03 03:33:08;;;;;;;20.58;3.22;;;;;;;10.30;100.00;102482.28;4870582;29;20502;-78
2022/10/03 03:35:36;;;;;;;14.23;2.10;;;;;;;10.30;100.00;102476.06;4868986;29;20044;-78
2022/10/03 03:38:22;;;;;;;10.63;2.05;;;;;;;10.30;100.00;102483.97;4878063;29;20390;-79
2022/10/03 03:40:56;;;;;;;15.45;2.88;;;;;;;10.28;100.00;102477.75;4885514;29;20709;-78
2022/10/03 03:43:43;;;;;;;12.65;2.25;;;;;;;10.28;100.00;102485.66;4860363;29;20498;-79
2022/10/03 03:46:49;;;;;;;12.95;1.75;;;;;;;10.24;100.00;102491.69;4879742;29;20068;-79
2022/10/03 03:49:42;;;;;;;10.02;2.00;;;;;;;10.22;100.00;102491.63;4892183;29;20044;-79
2022/10/03 03:52:29;;;;;;;15.70;2.85;;;;;;;10.22;100.00;102490.75;4906751;29;20056;-79
2022/10/03 03:55:14;;;;;;;7.10;1.90;;;;;;;10.22;100.00;102493.38;4817296;29;20048;-79
2022/10/03 03:57:56;;;;;;;13.32;1.98;;;;;;;10.23;100.00;102500.44;4890887;29;20260;-78
2022/10/03 04:00:37;;;;;;;9.70;1.73;;;;;;;10.22;100.00;102504.78;4893887;29;20548;-79
2022/10/03 04:03:18;;;;;;;12.25;2.17;;;;;;;10.20;100.00;102500.34;4893061;29;20044;-80
2022/10/03 04:06:02;;;;;;;9.18;2.25;;;;;;;10.21;100.00;102494.22;4895369;29;20036;-79
2022/10/03 04:09:00;;;;;;;12.93;2.03;;;;;;;10.21;100.00;102505.66;4906983;29;20062;-79
2022/10/03 04:11:53;;;;;;;9.20;2.08;;;;;;;10.24;100.00;102510.13;4901133;29;20258;-79
2022/10/03 04:14:38;;;;;;;12.18;2.53;;;;;;;10.25;100.00;102514.56;4912230;29;20074;-78
2022/10/03 04:20:52;;;;;;;10.32;2.58;;;;;;;10.26;100.00;102513.69;4902743;29;20071;-78
2022/10/03 04:23:55;;;;;;;11.13;2.17;;;;;;;10.24;100.00;102504.84;4902805;29;20048;-78
2022/10/03 04:26:52;;;;;;;16.13;2.58;;;;;;;10.21;100.00;102513.56;4850257;29;20157;-78
2022/10/03 04:30:06;;;;;;;9.60;2.20;;;;;;;10.18;100.00;102517.84;4892379;29;20051;-79
2022/10/03 04:32:46;;;;;;;12.50;2.33;;;;;;;10.15;100.00;102530.06;4843675;29;20153;-78
2022/10/03 04:35:33;;;;;;;8.65;2.00;;;;;;;10.12;100.00;102521.19;4831335;29;20721;-78
2022/10/03 04:38:05;;;;;;;8.45;2.42;;;;;;;10.09;100.00;102521.97;4877934;29;20051;-78
2022/10/03 04:41:01;;;;;;;10.98;1.75;;;;;;;10.08;100.00;102528.09;4867108;29;20055;-78
2022/10/03 04:43:59;;;;;;;9.50;1.92;;;;;;;10.04;100.00;102523.56;4899512;29;20263;-78
2022/10/03 04:46:54;;;;;;;7.05;1.88;;;;;;;10.01;100.00;102528.72;4895666;29;20048;-77
2022/10/03 04:49:31;;;;;;;6.47;1.75;;;;;;;9.99;100.00;102533.06;4887712;29;20044;-79
2022/10/03 04:52:03;;;;;;;11.02;3.03;;;;;;;9.97;100.00;102537.38;4898707;29;20044;-78
2022/10/03 04:55:09;;;;;;;9.20;2.67;;;;;;;9.93;100.00;102532.84;4883684;29;20047;-78
2022/10/03 04:57:49;;;;;;;7.43;1.98;;;;;;;9.89;100.00;102538.88;4862855;29;20391;-79
2022/10/03 05:00:28;;;;;;;11.45;2.15;;;;;;;9.86;100.00;102537.00;4876217;29;20665;-78
2022/10/03 05:03:00;;;;;;;7.07;1.58;;;;;;;9.84;100.00;102540.44;4899655;29;20048;-78
2022/10/03 05:05:50;;;;;;;8.05;1.77;;;;;;;9.80;100.00;102541.19;4901875;29;20060;-78
2022/10/03 05:08:37;;;;;;;11.93;2.20;;;;;;;9.78;100.00;102537.63;4903085;29;20206;-77
2022/10/03 05:11:27;;;;;;;11.77;2.00;;;;;;;9.74;100.00;102539.25;4875124;29;20048;-78
2022/10/03 05:13:56;;;;;;;9.65;2.72;;;;;;;9.71;100.00;102537.41;4862636;29;20059;-78
2022/10/03 05:16:39;;;;;;;10.43;2.30;;;;;;;9.70;100.00;102530.34;4879235;29;20037;-78
2022/10/03 05:19:17;;;;;;;10.25;2.15;;;;;;;9.68;100.00;102537.31;4895256;29;20056;-78
2022/10/03 05:21:55;;;;;;;6.75;2.17;;;;;;;9.67;100.00;102538.13;4904353;29;20494;-77
2022/10/03 05:24:33;;;;;;;6.78;1.90;;;;;;;9.65;100.00;102541.56;4886613;29;20133;-77
2022/10/03 05:27:37;;;;;;;6.30;2.03;;;;;;;9.62;100.00;102537.09;4889134;29;20048;-78
2022/10/03 05:30:13;;;;;;;8.95;1.83;;;;;;;9.60;100.00;102549.28;4891121;29;20784;-78
2022/10/03 05:32:48;;;;;;;14.00;2.58;;;;;;;9.59;100.00;102544.88;4890989;29;20040;-79
2022/10/03 05:36:01;;;;;;;8.38;2.35;;;;;;;9.59;100.00;102544.00;4890729;29;20052;-79
2022/10/03 05:38:43;;;;;;;13.40;2.38;;;;;;;9.60;100.00;102543.13;4888016;29;20125;-78
2022/10/03 05:41:14;;;;;;;12.30;2.38;;;;;;;9.60;100.00;102544.03;4890668;29;20327;-77
2022/10/03 05:43:57;;;;;;;8.85;2.33;;;;;;;9.62;100.00;102546.72;4863372;29;20043;-77
2022/10/03 05:46:34;;;;;;;8.43;1.98;;;;;;;9.62;100.00;102550.28;4903006;29;20040;-78
2022/10/03 05:49:29;;;;;;;7.28;1.90;;;;;;;9.63;100.00;102549.41;4877714;29;20533;-78
2022/10/03 05:52:07;;;;;;;14.75;2.40;;;;;;;9.63;100.00;102552.03;4877401;29;20064;-78
2022/10/03 05:55:04;;;;;;;11.82;2.80;;;;;;;9.66;100.00;102552.16;4911592;29;20055;-78
2022/10/03 05:58:06;;;;;;;10.82;2.58;;;;;;;9.69;100.00;102548.72;4881489;29;20036;-79
2022/10/03 06:01:13;;;;;;;11.25;2.30;;;;;;;9.72;100.00;102549.72;4887723;29;20044;-78
2022/10/03 06:04:04;;;;;;;16.45;3.17;;;;;;;9.74;100.00;102548.03;4902811;29;20047;-79
2022/10/03 06:07:00;;;;;;;10.55;2.30;;;;;;;9.73;100.00;102546.25;4878857;29;20033;-79
2022/10/03 06:09:47;;;;;;;15.05;2.92;;;;;;;9.78;100.00;102556.06;4907625;29;20035;-78
2022/10/03 06:12:35;;;;;;;13.98;2.53;;;;;;;9.80;100.00;102557.00;4883292;29;20040;-78
2022/10/03 06:15:28;;;;;;;10.70;2.45;;;;;;;9.84;100.00;102562.41;4846402;29;20598;-78
2022/10/03 06:18:08;;;;;;;11.95;1.95;;;;;;;9.89;100.00;102559.94;4902698;29;20097;-77
2022/10/03 06:20:59;;;;;;;9.38;2.53;;;;;;;9.93;100.00;102569.72;4886664;29;20056;-78
2022/10/03 06:23:52;;;;;;;10.07;3.30;;;;;;;9.95;100.00;102570.66;4881370;29;20332;-77
2022/10/03 06:26:48;;;;;;;14.75;2.40;;;;;;;9.98;100.00;102567.22;4877843;29;20044;-78
2022/10/03 06:29:56;;;;;;;6.95;1.83;;;;;;;9.99;100.00;102569.03;4883729;29;20063;-78
2022/10/03 06:32:25;;;;;;;11.00;2.10;;;;;;;9.99;100.00;102579.56;4898170;29;20175;-78
2022/10/03 06:35:31;;;;;;;10.63;2.35;;;;;;;9.97;100.00;102582.16;4907896;29;20045;-78
2022/10/03 06:38:02;;;;;;;11.60;2.13;;;;;;;9.98;100.00;102581.31;4892224;29;20044;-78
2022/10/03 06:40:40;;;;;;;12.25;2.47;;;;;;;9.99;100.00;102580.47;4898375;29;20328;-77
2022/10/03 06:43:37;;;;;;;20.80;2.60;;;;;;;10.09;100.00;102592.19;4889781;29;20405;-78
2022/10/03 06:46:24;;;;;;;15.13;2.33;;;;;;;10.46;100.00;102588.16;4894725;29;20044;-77
2022/10/03 06:49:19;;;;;;;10.13;1.95;;;;;;;10.79;100.00;102590.03;4895423;29;20052;-78
2022/10/03 06:52:08;;;;;;;14.30;2.72;;;;;;;10.87;100.00;102586.78;4888031;29;20394;-77
2022/10/03 06:55:17;;;;;;;16.60;3.15;;;;;;;10.89;100.00;102594.75;4887058;29;20442;-76
2022/10/03 06:58:19;;;;;;;11.98;2.78;;;;;;;10.88;100.00;102590.31;4848113;29;20048;-78
2022/10/03 07:01:10;;;;;;;14.90;2.55;;;;;;;10.88;100.00;102593.81;4877026;29;20044;-78
2022/10/03 07:03:45;;;;;;;13.02;2.65;;;;;;;10.90;100.00;102600.03;4838262;29;20052;-77
2022/10/03 07:06:26;;;;;;;10.05;1.90;;;;;;;10.92;100.00;102595.69;4901305;29;20059;-80
2022/10/03 07:09:03;;;;;;;9.93;1.90;;;;;;;10.95;100.00;102605.47;4897304;29;20055;-78
2022/10/03 07:11:42;;;;;;;10.77;2.70;;;;;;;11.00;100.00;102597.69;4892616;29;20743;-78
2022/10/03 07:14:17;;;;;;;12.88;1.70;;;;;;;11.05;100.00;102599.59;4868441;29;20048;-78
2022/10/03 07:17:04;;;;;;;4.78;2.40;;;;;;;11.12;100.00;102601.56;4882213;29;20040;-78
2022/10/03 07:19:59;;;;;;;8.90;1.98;;;;;;;11.27;100.00;102606.41;4902801;29;20048;-78
2022/10/03 07:22:49;;;;;;;12.70;1.88;;;;;;;11.52;100.00;102610.63;4882260;29;20522;-78
2022/10/03 07:25:21;;;;;;;9.32;2.53;;;;;;;11.92;100.00;102612.56;4865253;29;20044;-78
2022/10/03 07:28:20;;;;;;;7.78;1.75;;;;;;;12.26;100.00;102612.53;4913691;29;20044;-78
2022/10/03 07:31:19;;;;;;;12.27;2.05;;;;;;;12.62;100.00;102616.91;4879815;29;20052;-79
2022/10/03 07:34:39;;;;;;;5.78;1.98;;;;;;;13.03;100.00;102616.94;4886851;29;20052;-79
2022/10/03 07:40:17;;;;;;;7.43;2.20;;;;;;;14.29;100.00;102631.72;4893576;29;20796;-78
2022/10/03 07:42:49;;;;;;;7.60;2.38;;;;;;;14.81;100.00;102623.66;4911265;29;20040;-77
2022/10/03 07:45:29;;;;;;;7.15;1.80;;;;;;;15.24;100.00;102620.69;4898688;29;20056;-81
2022/10/03 07:48:16;;;;;;;9.25;1.65;;;;;;;15.64;100.00;102630.00;4877452;29;20412;-78
2022/10/03 07:51:05;;;;;;;6.00;1.80;;;;;;;16.05;100.00;102631.28;4903139;29;20044;-78
2022/10/03 07:53:44;;;;;;;5.38;1.70;;;;;;;16.26;100.00;102633.25;4887703;29;20577;-77
2022/10/03 07:56:50;;;;;;;6.50;1.73;;;;;;;16.50;100.00;102637.84;4873478;29;20175;-78
2022/10/03 07:59:41;;;;;;;9.93;1.70;;;;;;;16.73;100.00;102640.69;4899231;29;20041;-78
2022/10/03 08:02:42;;;;;;;6.90;1.80;;;;;;;17.00;100.00;102637.31;4853858;29;20048;-78
2022/10/03 08:05:48;;;;;;;7.60;1.70;;;;;;;17.24;100.00;102636.53;4892057;29;20250;-78
2022/10/03 08:08:23;;;;;;;5.85;1.42;;;;;;;17.50;100.00;102638.38;4888420;29;20255;-78
2022/10/03 08:11:32;;;;;;;9.63;1.70;;;;;;;17.63;100.00;102642.88;4896488;29;20044;-79
2022/10/03 08:14:31;;;;;;;6.80;1.70;;;;;;;17.67;100.00;102641.97;4890812;29;20052;-77
2022/10/03 08:17:15;;;;;;;6.85;1.85;;;;;;;17.69;100.00;102647.31;4860291;29;20051;-78
2022/10/03 08:20:39;;;;;;;6.75;1.50;;;;;;;17.81;100.00;102651.81;4892595;29;20491;-78
2022/10/03 08:23:29;;;;;;;6.32;1.67;;;;;;;17.84;100.00;102647.38;4827489;29;20062;-79
2022/10/03 08:26:17;;;;;;;10.85;1.58;;;;;;;17.83;100.00;102652.69;4821097;29;20412;-78
2022/10/03 08:28:45;;;;;;;5.05;1.65;;;;;;;17.82;100.00;102650.91;4813046;29;20061;-78
2022/10/03 08:31:54;;;;;;;7.68;1.80;;;;;;;17.86;100.00;102653.63;4867218;29;20612;-78
2022/10/03 08:34:52;;;;;;;9.82;1.65;;;;;;;17.86;100.00;102652.72;4855659;29;20279;-79
2022/10/03 08:37:40;;;;;;;6.78;1.90;;;;;;;17.87;100.00;102651.84;4911645;29;20255;-78
2022/10/03 08:40:39;;;;;;;6.43;1.85;;;;;;;17.97;100.00;102658.06;4898900;29;20262;-78
2022/10/03 08:43:37;;;;;;;12.73;2.10;;;;;;;18.06;100.00;102660.75;4859271;29;20057;-78
2022/10/03 08:46:23;;;;;;;7.05;2.03;;;;;;;17.98;100.00;102651.88;4901539;29;20040;-78
2022/10/03 08:49:04;;;;;;;10.13;1.92;;;;;;;17.86;100.00;102663.38;4875424;29;20052;-78
2022/10/03 08:51:55;;;;;;;5.53;2.03;;;;;;;17.76;100.00;102656.25;4882763;29;20506;-77
2022/10/03 08:54:23;;;;;;;3.65;1.65;;;;;;;17.73;100.00;102662.44;4909381;29;20048;-77
2022/10/03 08:57:13;;;;;;;7.47;1.65;;;;;;;17.67;100.00;102662.44;4888880;29;20040;-79
2022/10/03 09:00:08;;;;;;;5.95;2.05;;;;;;;17.60;100.00;102664.19;4891631;29;20059;-79
2022/10/03 09:02:49;;;;;;;8.23;1.48;;;;;;;17.56;100.00;102662.41;4895426;29;20040;-80
2022/10/03 09:06:23;;;;;;;3.45;1.40;;;;;;;17.46;100.00;102669.47;4912051;29;20402;-78
2022/10/03 09:09:20;;;;;;;7.32;1.67;;;;;;;17.31;100.00;102661.41;4846428;29;20056;-80
2022/10/03 09:12:07;;;;;;;9.00;1.90;;;;;;;17.15;100.00;102664.03;4856928;29;20574;-80
2022/10/03 09:14:56;;;;;;;4.28;1.95;;;;;;;17.00;100.00;102666.63;4878972;29;20049;-78
2022/10/03 09:17:40;;;;;;;6.88;1.55;;;;;;;16.83;100.00;102661.19;4910486;29;20059;-79
2022/10/03 09:20:28;;;;;;;7.10;1.75;;;;;;;16.71;100.00;102661.97;4854513;29;20326;-78
2022/10/03 09:23:15;;;;;;;5.22;1.63;;;;;;;16.61;100.00;102662.78;4874287;29;20041;-80
2022/10/03 09:25:56;;;;;;;6.82;1.67;;;;;;;16.50;100.00;102664.47;4893725;29;20048;-80
2022/10/03 09:28:46;;;;;;;6.10;1.50;;;;;;;16.42;100.00;102672.41;4890995;29;20510;-79
2022/10/03 09:31:53;;;;;;;6.53;1.60;;;;;;;16.38;100.00;102667.94;4902049;29;20083;-79
2022/10/03 09:34:31;;;;;;;5.82;1.50;;;;;;;16.40;100.00;102678.59;4876343;29;20036;-80
2022/10/03 09:37:14;;;;;;;7.20;1.75;;;;;;;16.39;100.00;102669.72;4853591;29;20048;-80
2022/10/03 09:39:45;;;;;;;5.32;2.10;;;;;;;16.38;100.00;102670.59;4889067;29;20029;-79
2022/10/03 09:42:35;;;;;;;5.40;1.48;;;;;;;16.36;100.00;102673.22;4910725;29;20071;-79
2022/10/03 09:45:25;;;;;;;10.40;2.50;;;;;;;16.37;100.00;102667.06;4894652;29;20414;-79
2022/10/03 09:48:25;;;;;;;6.63;1.60;;;;;;;16.41;100.00;102681.28;4901443;29;20284;-79
2022/10/03 09:51:20;;;;;;;6.05;1.58;;;;;;;16.46;100.00;102674.19;4854393;29;20059;-82
2022/10/03 09:53:58;;;;;;;3.83;1.25;;;;;;;16.49;100.00;102678.66;4901593;29;20553;-79
2022/10/03 09:56:57;;;;;;;6.45;1.75;;;;;;;16.51;100.00;102680.44;4908678;29;20048;-79
2022/10/03 09:59:43;;;;;;;8.93;1.30;;;;;;;16.53;100.00;102677.81;4891779;29;20044;-78
2022/10/03 10:02:18;;;;;;;3.80;1.17;;;;;;;16.55;100.00;102663.63;4877244;29;20123;-79
2022/10/03 10:05:05;;;;;;;7.20;1.60;;;;;;;16.56;100.00;102670.75;4892107;29;20063;-80
2022/10/03 10:08:18;;;;;;;6.22;1.38;;;;;;;16.58;100.00;102662.78;4836386;29;20040;-79
2022/10/03 10:11:17;;;;;;;5.93;1.35;;;;;;;16.62;100.00;102669.91;4847039;29;20060;-79
2022/10/03 10:14:09;;;;;;;4.22;0.90;;;;;;;16.65;100.00;102659.25;4901459;29;20067;-80
2022/10/03 10:17:15;;;;;;;3.50;1.20;;;;;;;16.70;100.00;102667.28;4893033;29;20423;-80
2022/10/03 10:19:52;;;;;;;7.05;1.83;;;;;;;16.72;100.00;102662.84;4897953;29;20542;-79
2022/10/03 10:22:43;;;;;;;3.33;1.20;;;;;;;16.71;100.00;102663.72;4864470;29;20058;-80
2022/10/03 10:25:19;;;;;;;6.53;1.42;;;;;;;16.60;100.00;102655.69;4900539;29;20044;-80
2022/10/03 10:28:16;;;;;;;3.72;1.30;;;;;;;16.50;100.00;102657.41;4903852;29;20171;-80
2022/10/03 10:31:22;;;;;;;5.85;1.25;;;;;;;16.41;100.00;102659.06;4880635;29;20044;-81
2022/10/03 10:34:06;;;;;;;9.77;1.70;;;;;;;16.45;100.00;102656.47;4887637;29;20060;-79
2022/10/03 10:36:52;;;;;;;6.28;1.40;;;;;;;16.53;100.00;102652.06;4901863;29;20039;-79
2022/10/03 10:39:26;;;;;;;4.43;1.40;;;;;;;16.59;100.00;102653.00;4860200;29;20063;-79
2022/10/03 10:42:13;;;;;;;5.45;1.50;;;;;;;16.70;100.00;102652.19;4886813;29;20251;-78
2022/10/03 10:44:57;;;;;;;3.60;1.17;;;;;;;16.81;100.00;102649.59;4870628;29;20079;-79
2022/10/03 10:48:01;;;;;;;7.28;1.33;;;;;;;16.95;100.00;102644.38;4886311;29;20044;-79
2022/10/03 10:50:45;;;;;;;6.50;1.50;;;;;;;17.07;100.00;102647.13;4901038;29;20521;-79
2022/10/03 10:53:51;;;;;;;6.30;1.27;;;;;;;17.11;100.00;102646.25;4861559;29;20051;-81
2022/10/03 10:56:44;;;;;;;7.07;1.63;;;;;;;17.16;100.00;102648.91;4898999;29;20036;-79
2022/10/03 10:59:46;;;;;;;4.78;1.08;;;;;;;17.25;100.00;102646.31;4878462;29;20049;-79
2022/10/03 11:02:52;;;;;;;4.63;1.90;;;;;;;17.32;100.00;102653.44;4884152;29;20040;-78
2022/10/03 11:05:50;;;;;;;4.30;1.35;;;;;;;17.37;100.00;102645.44;4883569;29;20399;-79
2022/10/03 11:08:58;;;;;;;6.03;1.30;;;;;;;17.38;100.00;102649.03;4886525;29;20049;-79
2022/10/03 11:12:08;;;;;;;5.95;1.30;;;;;;;17.31;100.00;102648.97;4860418;29;20536;-79
2022/10/03 11:15:17;;;;;;;4.50;1.08;;;;;;;17.28;100.00;102646.31;4860918;29;20636;-79
2022/10/03 11:18:35;;;;;;;2.78;1.13;;;;;;;17.34;100.00;102641.00;4863334;29;20270;-79
2022/10/03 11:21:58;;;;;;;5.25;1.73;;;;;;;17.33;100.00;102649.00;4878643;29;20055;-79
2022/10/03 11:25:00;;;;;;;3.75;1.30;;;;;;;17.34;100.00;102651.66;4831907;29;20511;-80
2022/10/03 11:27:59;;;;;;;4.93;1.20;;;;;;;17.27;99.80;102657.84;4829883;29;20049;-82
2022/10/03 11:31:10;;;;;;;6.60;1.38;;;;;;;17.25;99.96;102648.09;4854746;29;20053;-80
2022/10/03 11:33:52;;;;;;;1.95;1.00;;;;;;;17.22;100.00;102646.31;4861790;29;20059;-79
2022/10/03 11:36:48;;;;;;;4.65;1.45;;;;;;;17.30;100.00;102641.88;4877332;29;20056;-79
2022/10/03 11:39:41;;;;;;;3.67;0.98;;;;;;;17.39;100.00;102638.38;4862722;29;20071;-78
2022/10/03 11:42:13;;;;;;;4.20;1.23;;;;;;;17.47;100.00;102646.41;4824541;29;20041;-78
2022/10/03 11:45:01;;;;;;;5.88;2.20;;;;;;;17.56;100.00;102637.50;4883553;29;20055;-79
2022/10/03 11:47:41;;;;;;;4.10;1.30;;;;;;;17.65;100.00;102646.41;4849141;29;20052;-79
2022/10/03 11:50:28;;;;;;;2.55;1.00;;;;;;;17.73;100.00;102642.03;4856017;29;20060;-78
2022/10/03 11:53:14;;;;;;;2.80;0.90;;;;;;;17.77;99.57;102632.25;4872277;29;20407;-79
2022/10/03 11:55:52;;;;;;;5.25;1.20;;;;;;;17.81;99.48;102633.16;4884480;29;20080;-79
2022/10/03 11:58:20;;;;;;;5.10;1.17;;;;;;;17.87;99.59;102628.72;4815314;29;20060;-80
2022/10/03 12:01:10;;;;;;;3.05;1.33;;;;;;;17.92;97.93;102629.63;4895566;29;20060;-79
2022/10/03 12:04:08;;;;;;;4.60;1.10;;;;;;;17.87;95.30;102631.41;4894563;29;20542;-79
2022/10/03 12:09:45;;;;;;;3.63;1.27;;;;;;;17.79;96.51;102627.81;4883025;29;24038;-79
2022/10/03 12:12:36;;;;;;;4.63;1.00;;;;;;;17.72;96.27;102634.00;4847424;29;20048;-80
2022/10/03 12:15:20;;;;;;;2.15;1.00;;;;;;;17.65;94.79;102629.53;4874703;29;20057;-80
2022/10/03 12:18:41;;;;;;;3.30;1.02;;;;;;;17.57;96.16;102626.88;4895832;29;20053;-80
2022/10/03 12:21:10;;;;;;;3.55;1.13;;;;;;;17.53;96.42;102631.28;4847851;29;20056;-79
2022/10/03 12:23:50;;;;;;;3.83;1.08;;;;;;;17.55;96.62;102620.66;4879131;29;20768;-78
2022/10/03 12:26:32;;;;;;;2.00;1.02;;;;;;;17.60;96.98;102623.31;4870273;29;20049;-78
2022/10/03 12:29:03;;;;;;;4.07;1.50;;;;;;;17.67;97.64;102623.31;4845491;29;20040;-78
2022/10/03 12:31:43;;;;;;;2.75;1.10;;;;;;;17.71;96.89;102634.88;4861095;29;20045;-78
2022/10/03 12:34:34;;;;;;;6.22;1.60;;;;;;;17.67;97.75;102633.97;4869251;29;20057;-79
2022/10/03 12:37:22;;;;;;;3.03;1.20;;;;;;;17.62;97.25;102632.22;4893949;29;20063;-78
2022/10/03 12:40:09;;;;;;;3.85;1.20;;;;;;;17.57;97.69;102631.31;4890490;29;20049;-78
2022/10/03 12:42:47;;;;;;;3.35;1.30;;;;;;;17.56;97.08;102633.09;4841802;29;20560;-78
2022/10/03 12:45:22;;;;;;;5.18;1.00;;;;;;;17.52;97.00;102624.19;4876804;29;20060;-79
2022/10/03 12:48:21;;;;;;;2.15;0.88;;;;;;;17.42;95.05;102626.81;4881175;29;20044;-78
2022/10/03 12:50:56;;;;;;;1.97;0.90;;;;;;;17.33;96.65;102625.00;4866284;29;20415;-78
2022/10/03 12:53:35;;;;;;;2.60;0.98;;;;;;;17.25;96.84;102626.78;4876476;29;20679;-78
2022/10/03 12:56:13;;;;;;;3.38;1.05;;;;;;;17.20;97.79;102631.19;4883007;29;20047;-78
2022/10/03 12:58:51;;;;;;;7.03;1.67;;;;;;;17.12;98.19;102632.03;4846824;29;23258;-77
2022/10/03 13:01:22;;;;;;;6.55;1.33;;;;;;;17.07;99.20;102630.22;4891271;29;20403;-79
2022/10/03 13:04:22;;;;;;;4.85;1.17;;;;;;;16.99;98.28;102638.19;4868749;29;20044;-79
2022/10/03 13:07:28;;;;;;;4.97;1.38;;;;;;;16.92;98.62;102633.75;4884079;29;20052;-78
2022/10/03 13:10:30;;;;;;;3.13;1.10;;;;;;;16.87;99.24;102628.38;4876972;29;20051;-78